sensor_id;sensor_type;location;lat;lon;timestamp;P1;durP1;ratioP1;P2;durP2;ratioP2
7565;SDS011;3824;48.010;7.832;2022-10-16T00:02:24;0.80;;;0.30;;
7565;SDS011;3824;48.010;7.832;2022-10-16T00:04:52;5.53;;;0.60;;
7565;SDS011;3824;48.010;7.832;2022-10-16T00:07:19;0.53;;;0.17;;
7565;SDS011;3824;48.010;7.832;2022-10-16T00:09:46;1.27;;;0.40;;
7565;SDS011;3824;48.010;7.832;2022-10-16T00:12:14;0.43;;;0.20;;
7565;SDS011;3824;48.010;7.832;2022-10-16T00:14:41;0.50;;;0.20;;
7565;SDS011;3824;48.010;7.832;2022-10-16T00:17:09;0.40;;;0.20;;
7565;SDS011;3824;48.010;7.832;2022-10-16T00:19:35;1.37;;;0.47;;
7565;SDS011;3824;48.010;7.832;2022-10-16T00:22:02;7.20;;;1.00;;
7565;SDS011;3824;48.010;7.832;2022-10-16T00:24:29;1.53;;;0.53;;
7565;SDS011;3824;48.010;7.832;2022-10-16T00:26:56;0.67;;;0.27;;
7565;SDS011;3824;48.010;7.832;2022-10-16T00:29:24;1.77;;;0.60;;
7565;SDS011;3824;48.010;7.832;2022-10-16T00:31:51;0.43;;;0.27;;
7565;SDS011;3824;48.010;7.832;2022-10-16T00:34:17;1.50;;;0.40;;
7565;SDS011;3824;48.010;7.832;2022-10-16T00:36:44;23.20;;;7.30;;
7565;SDS011;3824;48.010;7.832;2022-10-16T00:39:11;5.40;;;2.00;;
7565;SDS011;3824;48.010;7.832;2022-10-16T00:41:38;2.27;;;0.43;;
7565;SDS011;3824;48.010;7.832;2022-10-16T00:47:07;3.63;;;0.30;;
7565;SDS011;3824;48.010;7.832;2022-10-16T00:49:35;9.83;;;0.30;;
7565;SDS011;3824;48.010;7.832;2022-10-16T00:52:02;2.23;;;0.57;;
7565;SDS011;3824;48.010;7.832;2022-10-16T00:54:30;2.27;;;0.50;;
7565;SDS011;3824;48.010;7.832;2022-10-16T00:56:59;0.63;;;0.30;;
7565;SDS011;3824;48.010;7.832;2022-10-16T00:59:28;1.20;;;0.20;;
7565;SDS011;3824;48.010;7.832;2022-10-16T01:01:56;1.43;;;0.60;;
7565;SDS011;3824;48.010;7.832;2022-10-16T01:04:25;0.60;;;0.30;;
7565;SDS011;3824;48.010;7.832;2022-10-16T01:06:56;3.50;;;0.37;;
7565;SDS011;3824;48.010;7.832;2022-10-16T01:09:34;2.60;;;0.60;;
7565;SDS011;3824;48.010;7.832;2022-10-16T01:12:06;0.50;;;0.27;;
7565;SDS011;3824;48.010;7.832;2022-10-16T01:14:37;0.47;;;0.30;;
7565;SDS011;3824;48.010;7.832;2022-10-16T01:17:11;1.87;;;0.20;;
7565;SDS011;3824;48.010;7.832;2022-10-16T01:19:49;6.90;;;0.37;;
7565;SDS011;3824;48.010;7.832;2022-10-16T01:22:26;0.40;;;0.20;;
7565;SDS011;3824;48.010;7.832;2022-10-16T01:25:03;0.60;;;0.30;;
7565;SDS011;3824;48.010;7.832;2022-10-16T01:27:36;1.43;;;0.30;;
7565;SDS011;3824;48.010;7.832;2022-10-16T01:30:07;0.60;;;0.40;;
7565;SDS011;3824;48.010;7.832;2022-10-16T01:32:40;0.40;;;0.20;;
7565;SDS011;3824;48.010;7.832;2022-10-16T01:35:09;11.47;;;2.10;;
7565;SDS011;3824;48.010;7.832;2022-10-16T01:37:40;19.93;;;5.63;;
7565;SDS011;3824;48.010;7.832;2022-10-16T01:40:13;1.30;;;0.50;;
7565;SDS011;3824;48.010;7.832;2022-10-16T01:42:44;0.50;;;0.20;;
7565;SDS011;3824;48.010;7.832;2022-10-16T01:45:14;1.20;;;0.40;;
7565;SDS011;3824;48.010;7.832;2022-10-16T01:47:44;1.77;;;0.63;;
7565;SDS011;3824;48.010;7.832;2022-10-16T01:50:14;335.60;;;106.33;;
7565;SDS011;3824;48.010;7.832;2022-10-16T01:52:43;295.57;;;87.13;;
7565;SDS011;3824;48.010;7.832;2022-10-16T01:55:14;155.90;;;42.67;;
7565;SDS011;3824;48.010;7.832;2022-10-16T01:57:46;302.23;;;91.53;;
7565;SDS011;3824;48.010;7.832;2022-10-16T02:00:16;163.83;;;47.50;;
7565;SDS011;3824;48.010;7.832;2022-10-16T02:02:45;204.23;;;60.77;;
7565;SDS011;3824;48.010;7.832;2022-10-16T02:05:18;46.73;;;17.10;;
7565;SDS011;3824;48.010;7.832;2022-10-16T02:07:49;92.63;;;23.33;;
7565;SDS011;3824;48.010;7.832;2022-10-16T02:10:16;76.87;;;22.93;;
7565;SDS011;3824;48.010;7.832;2022-10-16T02:12:46;13.60;;;5.20;;
7565;SDS011;3824;48.010;7.832;2022-10-16T02:15:16;130.53;;;33.53;;
7565;SDS011;3824;48.010;7.832;2022-10-16T02:17:43;120.60;;;32.77;;
7565;SDS011;3824;48.010;7.832;2022-10-16T02:20:10;13.03;;;4.60;;
7565;SDS011;3824;48.010;7.832;2022-10-16T02:22:38;26.97;;;7.63;;
7565;SDS011;3824;48.010;7.832;2022-10-16T02:25:09;12.83;;;1.87;;
7565;SDS011;3824;48.010;7.832;2022-10-16T02:27:40;18.27;;;4.90;;
7565;SDS011;3824;48.010;7.832;2022-10-16T02:30:14;44.03;;;14.93;;
7565;SDS011;3824;48.010;7.832;2022-10-16T02:32:45;8.70;;;2.17;;
7565;SDS011;3824;48.010;7.832;2022-10-16T02:35:15;0.40;;;0.30;;
7565;SDS011;3824;48.010;7.832;2022-10-16T02:37:44;61.53;;;15.10;;
7565;SDS011;3824;48.010;7.832;2022-10-16T02:40:12;0.60;;;0.30;;
7565;SDS011;3824;48.010;7.832;2022-10-16T02:42:40;103.47;;;27.57;;
7565;SDS011;3824;48.010;7.832;2022-10-16T02:45:07;14.80;;;5.07;;
7565;SDS011;3824;48.010;7.832;2022-10-16T02:47:37;1.70;;;0.40;;
7565;SDS011;3824;48.010;7.832;2022-10-16T02:50:04;51.60;;;14.33;;
7565;SDS011;3824;48.010;7.832;2022-10-16T02:52:32;36.80;;;11.20;;
7565;SDS011;3824;48.010;7.832;2022-10-16T02:54:58;73.90;;;18.93;;
7565;SDS011;3824;48.010;7.832;2022-10-16T02:57:25;35.53;;;11.10;;
7565;SDS011;3824;48.010;7.832;2022-10-16T02:59:52;13.50;;;4.87;;
7565;SDS011;3824;48.010;7.832;2022-10-16T03:02:20;1.57;;;0.57;;
7565;SDS011;3824;48.010;7.832;2022-10-16T03:04:48;2.37;;;0.60;;
7565;SDS011;3824;48.010;7.832;2022-10-16T03:07:15;0.70;;;0.40;;
7565;SDS011;3824;48.010;7.832;2022-10-16T03:09:42;1.30;;;0.40;;
7565;SDS011;3824;48.010;7.832;2022-10-16T03:12:09;0.60;;;0.20;;
7565;SDS011;3824;48.010;7.832;2022-10-16T03:14:37;1.47;;;0.20;;
7565;SDS011;3824;48.010;7.832;2022-10-16T03:17:04;1.03;;;0.37;;
7565;SDS011;3824;48.010;7.832;2022-10-16T03:19:31;1.47;;;0.37;;
7565;SDS011;3824;48.010;7.832;2022-10-16T03:21:59;0.53;;;0.30;;
7565;SDS011;3824;48.010;7.832;2022-10-16T03:24:26;2.40;;;0.30;;
7565;SDS011;3824;48.010;7.832;2022-10-16T03:26:53;1.63;;;0.40;;
7565;SDS011;3824;48.010;7.832;2022-10-16T03:29:20;1.43;;;0.30;;
7565;SDS011;3824;48.010;7.832;2022-10-16T03:31:46;0.50;;;0.30;;
7565;SDS011;3824;48.010;7.832;2022-10-16T03:34:14;1.23;;;0.30;;
7565;SDS011;3824;48.010;7.832;2022-10-16T03:36:41;0.50;;;0.30;;
7565;SDS011;3824;48.010;7.832;2022-10-16T03:39:09;5.80;;;0.30;;
7565;SDS011;3824;48.010;7.832;2022-10-16T03:41:36;0.40;;;0.30;;
7565;SDS011;3824;48.010;7.832;2022-10-16T03:44:03;0.40;;;0.20;;
7565;SDS011;3824;48.010;7.832;2022-10-16T03:46:29;3.70;;;0.40;;
7565;SDS011;3824;48.010;7.832;2022-10-16T03:48:56;0.93;;;0.27;;
7565;SDS011;3824;48.010;7.832;2022-10-16T03:51:23;1.33;;;0.20;;
7565;SDS011;3824;48.010;7.832;2022-10-16T03:53:50;0.50;;;0.27;;
7565;SDS011;3824;48.010;7.832;2022-10-16T03:56:18;0.40;;;0.20;;
7565;SDS011;3824;48.010;7.832;2022-10-16T03:58:45;1.23;;;0.20;;
7565;SDS011;3824;48.010;7.832;2022-10-16T04:01:12;0.40;;;0.20;;
7565;SDS011;3824;48.010;7.832;2022-10-16T04:03:38;0.40;;;0.20;;
7565;SDS011;3824;48.010;7.832;2022-10-16T04:06:05;0.30;;;0.20;;
7565;SDS011;3824;48.010;7.832;2022-10-16T04:08:32;0.40;;;0.20;;
7565;SDS011;3824;48.010;7.832;2022-10-16T04:11:01;2.00;;;0.20;;
7565;SDS011;3824;48.010;7.832;2022-10-16T04:13:30;0.30;;;0.20;;
7565;SDS011;3824;48.010;7.832;2022-10-16T04:15:56;0.40;;;0.20;;
7565;SDS011;3824;48.010;7.832;2022-10-16T04:18:23;0.50;;;0.20;;
7565;SDS011;3824;48.010;7.832;2022-10-16T04:20:52;0.50;;;0.30;;
7565;SDS011;3824;48.010;7.832;2022-10-16T04:23:19;0.40;;;0.30;;
7565;SDS011;3824;48.010;7.832;2022-10-16T04:25:45;0.30;;;0.20;;
7565;SDS011;3824;48.010;7.832;2022-10-16T04:28:12;1.43;;;0.20;;
7565;SDS011;3824;48.010;7.832;2022-10-16T04:30:40;0.93;;;0.20;;
7565;SDS011;3824;48.010;7.832;2022-10-16T04:33:08;0.87;;;0.40;;
7565;SDS011;3824;48.010;7.832;2022-10-16T04:35:35;0.50;;;0.20;;
7565;SDS011;3824;48.010;7.832;2022-10-16T04:38:02;0.43;;;0.20;;
7565;SDS011;3824;48.010;7.832;2022-10-16T04:40:29;0.50;;;0.13;;
7565;SDS011;3824;48.010;7.832;2022-10-16T04:42:57;1.43;;;0.20;;
7565;SDS011;3824;48.010;7.832;2022-10-16T04:45:24;0.30;;;0.20;;
7565;SDS011;3824;48.010;7.832;2022-10-16T04:47:53;1.07;;;0.10;;
7565;SDS011;3824;48.010;7.832;2022-10-16T04:50:23;0.50;;;0.20;;
7565;SDS011;3824;48.010;7.832;2022-10-16T04:52:49;0.30;;;0.10;;
7565;SDS011;3824;48.010;7.832;2022-10-16T04:55:16;1.07;;;0.20;;
7565;SDS011;3824;48.010;7.832;2022-10-16T04:57:43;3.90;;;0.20;;
7565;SDS011;3824;48.010;7.832;2022-10-16T05:00:10;0.47;;;0.20;;
7565;SDS011;3824;48.010;7.832;2022-10-16T05:02:38;0.50;;;0.20;;
7565;SDS011;3824;48.010;7.832;2022-10-16T05:05:06;0.40;;;0.20;;
7565;SDS011;3824;48.010;7.832;2022-10-16T05:07:33;0.40;;;0.20;;
7565;SDS011;3824;48.010;7.832;2022-10-16T05:10:00;0.30;;;0.10;;
7565;SDS011;3824;48.010;7.832;2022-10-16T05:12:27;0.40;;;0.20;;
7565;SDS011;3824;48.010;7.832;2022-10-16T05:14:54;2.40;;;0.20;;
7565;SDS011;3824;48.010;7.832;2022-10-16T05:17:23;0.37;;;0.20;;
7565;SDS011;3824;48.010;7.832;2022-10-16T05:19:50;0.40;;;0.20;;
7565;SDS011;3824;48.010;7.832;2022-10-16T05:22:18;0.50;;;0.20;;
7565;SDS011;3824;48.010;7.832;2022-10-16T05:24:45;0.50;;;0.20;;
7565;SDS011;3824;48.010;7.832;2022-10-16T05:27:12;0.80;;;0.20;;
7565;SDS011;3824;48.010;7.832;2022-10-16T05:29:44;0.93;;;0.27;;
7565;SDS011;3824;48.010;7.832;2022-10-16T05:32:11;0.80;;;0.20;;
7565;SDS011;3824;48.010;7.832;2022-10-16T05:34:38;0.47;;;0.27;;
7565;SDS011;3824;48.010;7.832;2022-10-16T05:37:05;0.40;;;0.20;;
7565;SDS011;3824;48.010;7.832;2022-10-16T05:39:33;0.40;;;0.20;;
7565;SDS011;3824;48.010;7.832;2022-10-16T05:42:01;0.70;;;0.20;;
7565;SDS011;3824;48.010;7.832;2022-10-16T05:44:28;0.30;;;0.20;;
7565;SDS011;3824;48.010;7.832;2022-10-16T05:46:55;0.80;;;0.20;;
7565;SDS011;3824;48.010;7.832;2022-10-16T05:49:22;0.40;;;0.20;;
7565;SDS011;3824;48.010;7.832;2022-10-16T05:51:49;0.40;;;0.20;;
7565;SDS011;3824;48.010;7.832;2022-10-16T05:54:16;0.60;;;0.20;;
7565;SDS011;3824;48.010;7.832;2022-10-16T05:56:44;0.50;;;0.20;;
7565;SDS011;3824;48.010;7.832;2022-10-16T05:59:11;0.40;;;0.20;;
7565;SDS011;3824;48.010;7.832;2022-10-16T06:01:37;3.93;;;0.20;;
7565;SDS011;3824;48.010;7.832;2022-10-16T06:04:04;0.47;;;0.30;;
7565;SDS011;3824;48.010;7.832;2022-10-16T06:06:31;0.40;;;0.20;;
7565;SDS011;3824;48.010;7.832;2022-10-16T06:08:58;0.33;;;0.20;;
7565;SDS011;3824;48.010;7.832;2022-10-16T06:11:26;0.40;;;0.30;;
7565;SDS011;3824;48.010;7.832;2022-10-16T06:13:56;3.77;;;0.20;;
7565;SDS011;3824;48.010;7.832;2022-10-16T06:16:25;0.40;;;0.30;;
7565;SDS011;3824;48.010;7.832;2022-10-16T06:18:52;0.50;;;0.20;;
7565;SDS011;3824;48.010;7.832;2022-10-16T06:21:21;1.70;;;0.20;;
7565;SDS011;3824;48.010;7.832;2022-10-16T06:23:49;0.50;;;0.20;;
7565;SDS011;3824;48.010;7.832;2022-10-16T06:26:17;2.20;;;0.20;;
7565;SDS011;3824;48.010;7.832;2022-10-16T06:28:45;0.30;;;0.20;;
7565;SDS011;3824;48.010;7.832;2022-10-16T06:31:13;0.33;;;0.20;;
7565;SDS011;3824;48.010;7.832;2022-10-16T06:33:41;0.60;;;0.20;;
7565;SDS011;3824;48.010;7.832;2022-10-16T06:36:08;0.40;;;0.20;;
7565;SDS011;3824;48.010;7.832;2022-10-16T06:38:37;0.40;;;0.20;;
7565;SDS011;3824;48.010;7.832;2022-10-16T06:41:05;0.50;;;0.27;;
7565;SDS011;3824;48.010;7.832;2022-10-16T06:43:32;0.50;;;0.20;;
7565;SDS011;3824;48.010;7.832;2022-10-16T06:46:00;0.43;;;0.30;;
7565;SDS011;3824;48.010;7.832;2022-10-16T06:48:30;10.10;;;3.53;;
7565;SDS011;3824;48.010;7.832;2022-10-16T06:50:57;0.80;;;0.30;;
7565;SDS011;3824;48.010;7.832;2022-10-16T06:53:26;0.50;;;0.30;;
7565;SDS011;3824;48.010;7.832;2022-10-16T06:55:54;0.90;;;0.50;;
7565;SDS011;3824;48.010;7.832;2022-10-16T06:58:21;0.40;;;0.20;;
7565;SDS011;3824;48.010;7.832;2022-10-16T07:00:48;6.77;;;0.33;;
7565;SDS011;3824;48.010;7.832;2022-10-16T07:03:20;3.30;;;0.50;;
7565;SDS011;3824;48.010;7.832;2022-10-16T07:05:48;0.90;;;0.30;;
7565;SDS011;3824;48.010;7.832;2022-10-16T07:08:15;2.23;;;0.40;;
7565;SDS011;3824;48.010;7.832;2022-10-16T07:10:42;0.53;;;0.30;;
7565;SDS011;3824;48.010;7.832;2022-10-16T07:13:09;0.60;;;0.30;;
7565;SDS011;3824;48.010;7.832;2022-10-16T07:15:38;2.40;;;0.77;;
7565;SDS011;3824;48.010;7.832;2022-10-16T07:18:05;0.50;;;0.30;;
7565;SDS011;3824;48.010;7.832;2022-10-16T07:20:32;2.10;;;0.70;;
7565;SDS011;3824;48.010;7.832;2022-10-16T07:23:00;0.50;;;0.33;;
7565;SDS011;3824;48.010;7.832;2022-10-16T07:25:27;2.77;;;0.37;;
7565;SDS011;3824;48.010;7.832;2022-10-16T07:27:53;0.60;;;0.40;;
7565;SDS011;3824;48.010;7.832;2022-10-16T07:30:21;0.83;;;0.40;;
7565;SDS011;3824;48.010;7.832;2022-10-16T07:32:48;5.20;;;0.50;;
7565;SDS011;3824;48.010;7.832;2022-10-16T07:35:15;8.53;;;0.40;;
7565;SDS011;3824;48.010;7.832;2022-10-16T07:37:43;3.07;;;0.40;;
7565;SDS011;3824;48.010;7.832;2022-10-16T07:40:12;50.43;;;24.90;;
7565;SDS011;3824;48.010;7.832;2022-10-16T07:42:39;1.20;;;1.10;;
7565;SDS011;3824;48.010;7.832;2022-10-16T07:45:06;5.03;;;2.40;;
7565;SDS011;3824;48.010;7.832;2022-10-16T07:47:33;17.93;;;7.60;;
7565;SDS011;3824;48.010;7.832;2022-10-16T07:50:00;7.60;;;2.70;;
7565;SDS011;3824;48.010;7.832;2022-10-16T07:52:27;1.23;;;0.50;;
7565;SDS011;3824;48.010;7.832;2022-10-16T07:54:53;2.30;;;0.50;;
7565;SDS011;3824;48.010;7.832;2022-10-16T07:57:22;0.80;;;0.40;;
7565;SDS011;3824;48.010;7.832;2022-10-16T07:59:48;0.73;;;0.40;;
7565;SDS011;3824;48.010;7.832;2022-10-16T08:02:15;0.57;;;0.30;;
7565;SDS011;3824;48.010;7.832;2022-10-16T08:04:42;0.40;;;0.20;;
7565;SDS011;3824;48.010;7.832;2022-10-16T08:07:09;0.90;;;0.20;;
7565;SDS011;3824;48.010;7.832;2022-10-16T08:09:36;0.60;;;0.30;;
7565;SDS011;3824;48.010;7.832;2022-10-16T08:12:02;1.40;;;0.30;;
7565;SDS011;3824;48.010;7.832;2022-10-16T08:14:31;0.60;;;0.30;;
7565;SDS011;3824;48.010;7.832;2022-10-16T08:16:58;0.47;;;0.20;;
7565;SDS011;3824;48.010;7.832;2022-10-16T08:19:27;2.00;;;0.20;;
7565;SDS011;3824;48.010;7.832;2022-10-16T08:21:53;0.40;;;0.20;;
7565;SDS011;3824;48.010;7.832;2022-10-16T08:24:20;0.97;;;0.20;;
7565;SDS011;3824;48.010;7.832;2022-10-16T08:26:48;0.70;;;0.20;;
7565;SDS011;3824;48.010;7.832;2022-10-16T08:29:14;0.53;;;0.30;;
7565;SDS011;3824;48.010;7.832;2022-10-16T08:31:43;0.60;;;0.27;;
7565;SDS011;3824;48.010;7.832;2022-10-16T08:34:09;0.47;;;0.20;;
7565;SDS011;3824;48.010;7.832;2022-10-16T08:36:36;0.43;;;0.20;;
7565;SDS011;3824;48.010;7.832;2022-10-16T08:39:03;1.63;;;0.20;;
7565;SDS011;3824;48.010;7.832;2022-10-16T08:41:34;0.67;;;0.33;;
7565;SDS011;3824;48.010;7.832;2022-10-16T08:44:27;0.60;;;0.30;;
7565;SDS011;3824;48.010;7.832;2022-10-16T08:47:10;0.57;;;0.30;;
7565;SDS011;3824;48.010;7.832;2022-10-16T08:49:47;0.40;;;0.20;;
7565;SDS011;3824;48.010;7.832;2022-10-16T08:52:23;0.57;;;0.20;;
7565;SDS011;3824;48.010;7.832;2022-10-16T08:54:54;0.80;;;0.30;;
7565;SDS011;3824;48.010;7.832;2022-10-16T08:57:22;0.40;;;0.20;;
7565;SDS011;3824;48.010;7.832;2022-10-16T08:59:52;0.40;;;0.20;;
7565;SDS011;3824;48.010;7.832;2022-10-16T09:02:26;0.33;;;0.20;;
7565;SDS011;3824;48.010;7.832;2022-10-16T09:07:49;3.57;;;0.30;;
7565;SDS011;3824;48.010;7.832;2022-10-16T09:10:27;3.13;;;0.20;;
7565;SDS011;3824;48.010;7.832;2022-10-16T09:13:07;0.60;;;0.30;;
7565;SDS011;3824;48.010;7.832;2022-10-16T09:15:44;1.37;;;0.20;;
7565;SDS011;3824;48.010;7.832;2022-10-16T09:18:21;0.47;;;0.20;;
7565;SDS011;3824;48.010;7.832;2022-10-16T09:20:55;0.40;;;0.20;;
7565;SDS011;3824;48.010;7.832;2022-10-16T09:23:32;0.47;;;0.30;;
7565;SDS011;3824;48.010;7.832;2022-10-16T09:26:01;0.40;;;0.20;;
7565;SDS011;3824;48.010;7.832;2022-10-16T09:28:30;0.40;;;0.20;;
7565;SDS011;3824;48.010;7.832;2022-10-16T09:30:56;0.80;;;0.30;;
7565;SDS011;3824;48.010;7.832;2022-10-16T09:33:25;0.43;;;0.20;;
7565;SDS011;3824;48.010;7.832;2022-10-16T09:35:56;0.60;;;0.30;;
7565;SDS011;3824;48.010;7.832;2022-10-16T09:38:25;0.40;;;0.20;;
7565;SDS011;3824;48.010;7.832;2022-10-16T09:40:55;0.40;;;0.30;;
7565;SDS011;3824;48.010;7.832;2022-10-16T09:43:23;2.70;;;0.20;;
7565;SDS011;3824;48.010;7.832;2022-10-16T09:45:57;0.40;;;0.20;;
7565;SDS011;3824;48.010;7.832;2022-10-16T09:48:28;0.67;;;0.20;;
7565;SDS011;3824;48.010;7.832;2022-10-16T09:51:04;1.17;;;0.20;;
7565;SDS011;3824;48.010;7.832;2022-10-16T09:53:40;0.37;;;0.20;;
7565;SDS011;3824;48.010;7.832;2022-10-16T09:56:09;0.40;;;0.20;;
7565;SDS011;3824;48.010;7.832;2022-10-16T09:58:41;0.30;;;0.20;;
7565;SDS011;3824;48.010;7.832;2022-10-16T10:01:11;0.40;;;0.30;;
7565;SDS011;3824;48.010;7.832;2022-10-16T10:03:42;1.17;;;0.27;;
7565;SDS011;3824;48.010;7.832;2022-10-16T10:06:17;0.50;;;0.30;;
7565;SDS011;3824;48.010;7.832;2022-10-16T10:08:58;3.33;;;1.70;;
7565;SDS011;3824;48.010;7.832;2022-10-16T10:11:44;0.60;;;0.30;;
7565;SDS011;3824;48.010;7.832;2022-10-16T10:14:19;1.07;;;0.50;;
7565;SDS011;3824;48.010;7.832;2022-10-16T10:16:51;0.93;;;0.30;;
7565;SDS011;3824;48.010;7.832;2022-10-16T10:19:20;0.50;;;0.23;;
7565;SDS011;3824;48.010;7.832;2022-10-16T10:21:49;0.40;;;0.20;;
7565;SDS011;3824;48.010;7.832;2022-10-16T10:24:17;0.40;;;0.20;;
7565;SDS011;3824;48.010;7.832;2022-10-16T10:26:49;0.33;;;0.20;;
7565;SDS011;3824;48.010;7.832;2022-10-16T10:29:25;0.70;;;0.20;;
7565;SDS011;3824;48.010;7.832;2022-10-16T10:32:04;0.40;;;0.30;;
7565;SDS011;3824;48.010;7.832;2022-10-16T10:34:42;0.60;;;0.20;;
7565;SDS011;3824;48.010;7.832;2022-10-16T10:37:26;0.40;;;0.20;;
7565;SDS011;3824;48.010;7.832;2022-10-16T10:40:08;0.47;;;0.27;;
7565;SDS011;3824;48.010;7.832;2022-10-16T10:42:44;0.73;;;0.20;;
7565;SDS011;3824;48.010;7.832;2022-10-16T10:45:18;1.30;;;0.20;;
7565;SDS011;3824;48.010;7.832;2022-10-16T10:48:01;0.40;;;0.20;;
7565;SDS011;3824;48.010;7.832;2022-10-16T10:50:45;0.30;;;0.10;;
7565;SDS011;3824;48.010;7.832;2022-10-16T10:53:18;0.40;;;0.20;;
7565;SDS011;3824;48.010;7.832;2022-10-16T10:55:58;0.60;;;0.30;;
7565;SDS011;3824;48.010;7.832;2022-10-16T10:58:45;0.40;;;0.20;;
7565;SDS011;3824;48.010;7.832;2022-10-16T11:01:30;0.57;;;0.20;;
7565;SDS011;3824;48.010;7.832;2022-10-16T11:04:14;0.50;;;0.20;;
7565;SDS011;3824;48.010;7.832;2022-10-16T11:06:57;0.40;;;0.20;;
7565;SDS011;3824;48.010;7.832;2022-10-16T11:09:27;0.30;;;0.20;;
7565;SDS011;3824;48.010;7.832;2022-10-16T11:11:59;1.00;;;0.30;;
7565;SDS011;3824;48.010;7.832;2022-10-16T11:14:34;0.50;;;0.20;;
7565;SDS011;3824;48.010;7.832;2022-10-16T11:17:05;2.70;;;0.30;;
7565;SDS011;3824;48.010;7.832;2022-10-16T11:19:39;1.40;;;0.63;;
7565;SDS011;3824;48.010;7.832;2022-10-16T11:22:15;0.60;;;0.30;;
7565;SDS011;3824;48.010;7.832;2022-10-16T11:24:47;0.60;;;0.20;;
7565;SDS011;3824;48.010;7.832;2022-10-16T11:27:17;0.47;;;0.30;;
7565;SDS011;3824;48.010;7.832;2022-10-16T11:29:51;0.50;;;0.20;;
7565;SDS011;3824;48.010;7.832;2022-10-16T11:32:23;0.40;;;0.20;;
7565;SDS011;3824;48.010;7.832;2022-10-16T11:34:57;0.40;;;0.20;;
7565;SDS011;3824;48.010;7.832;2022-10-16T11:37:30;0.40;;;0.30;;
7565;SDS011;3824;48.010;7.832;2022-10-16T11:40:04;0.40;;;0.20;;
7565;SDS011;3824;48.010;7.832;2022-10-16T11:42:44;1.40;;;0.20;;
7565;SDS011;3824;48.010;7.832;2022-10-16T11:45:20;0.40;;;0.20;;
7565;SDS011;3824;48.010;7.832;2022-10-16T11:47:54;0.37;;;0.20;;
7565;SDS011;3824;48.010;7.832;2022-10-16T11:50:28;1.70;;;0.30;;
7565;SDS011;3824;48.010;7.832;2022-10-16T11:53:03;0.40;;;0.20;;
7565;SDS011;3824;48.010;7.832;2022-10-16T11:55:36;0.50;;;0.20;;
7565;SDS011;3824;48.010;7.832;2022-10-16T11:58:06;0.50;;;0.20;;
7565;SDS011;3824;48.010;7.832;2022-10-16T12:00:39;0.40;;;0.20;;
7565;SDS011;3824;48.010;7.832;2022-10-16T12:03:13;1.77;;;0.20;;
7565;SDS011;3824;48.010;7.832;2022-10-16T12:05:51;0.30;;;0.20;;
7565;SDS011;3824;48.010;7.832;2022-10-16T12:08:25;0.50;;;0.20;;
7565;SDS011;3824;48.010;7.832;2022-10-16T12:10:53;0.40;;;0.20;;
7565;SDS011;3824;48.010;7.832;2022-10-16T12:13:33;0.83;;;0.20;;
7565;SDS011;3824;48.010;7.832;2022-10-16T12:16:06;0.47;;;0.27;;
7565;SDS011;3824;48.010;7.832;2022-10-16T12:18:46;4.00;;;0.20;;
7565;SDS011;3824;48.010;7.832;2022-10-16T12:21:14;0.30;;;0.20;;
7565;SDS011;3824;48.010;7.832;2022-10-16T12:23:48;0.40;;;0.20;;
7565;SDS011;3824;48.010;7.832;2022-10-16T12:26:23;0.40;;;0.20;;
7565;SDS011;3824;48.010;7.832;2022-10-16T12:28:51;0.30;;;0.20;;
7565;SDS011;3824;48.010;7.832;2022-10-16T12:31:18;0.70;;;0.30;;
7565;SDS011;3824;48.010;7.832;2022-10-16T12:33:53;0.50;;;0.23;;
7565;SDS011;3824;48.010;7.832;2022-10-16T12:36:27;0.40;;;0.20;;
7565;SDS011;3824;48.010;7.832;2022-10-16T12:38:57;0.50;;;0.20;;
7565;SDS011;3824;48.010;7.832;2022-10-16T12:41:25;0.50;;;0.30;;
7565;SDS011;3824;48.010;7.832;2022-10-16T12:43:54;0.77;;;0.30;;
7565;SDS011;3824;48.010;7.832;2022-10-16T12:46:22;0.30;;;0.20;;
7565;SDS011;3824;48.010;7.832;2022-10-16T12:48:50;0.53;;;0.30;;
7565;SDS011;3824;48.010;7.832;2022-10-16T12:51:25;0.40;;;0.20;;
7565;SDS011;3824;48.010;7.832;2022-10-16T12:54:02;0.40;;;0.20;;
7565;SDS011;3824;48.010;7.832;2022-10-16T12:56:34;0.53;;;0.30;;
7565;SDS011;3824;48.010;7.832;2022-10-16T12:59:15;0.63;;;0.20;;
7565;SDS011;3824;48.010;7.832;2022-10-16T13:02:06;0.87;;;0.20;;
7565;SDS011;3824;48.010;7.832;2022-10-16T13:05:08;1.80;;;0.20;;
7565;SDS011;3824;48.010;7.832;2022-10-16T13:07:47;0.40;;;0.20;;
7565;SDS011;3824;48.010;7.832;2022-10-16T13:10:25;0.53;;;0.30;;
7565;SDS011;3824;48.010;7.832;2022-10-16T13:16:02;2.00;;;0.30;;
7565;SDS011;3824;48.010;7.832;2022-10-16T13:18:44;0.60;;;0.30;;
7565;SDS011;3824;48.010;7.832;2022-10-16T13:21:20;0.50;;;0.30;;
7565;SDS011;3824;48.010;7.832;2022-10-16T13:23:59;0.40;;;0.27;;
7565;SDS011;3824;48.010;7.832;2022-10-16T13:26:38;0.30;;;0.20;;
7565;SDS011;3824;48.010;7.832;2022-10-16T13:29:09;3.83;;;3.03;;
7565;SDS011;3824;48.010;7.832;2022-10-16T13:31:36;0.60;;;0.30;;
7565;SDS011;3824;48.010;7.832;2022-10-16T13:34:05;0.50;;;0.30;;
7565;SDS011;3824;48.010;7.832;2022-10-16T13:36:34;0.60;;;0.30;;
7565;SDS011;3824;48.010;7.832;2022-10-16T13:39:11;0.50;;;0.30;;
7565;SDS011;3824;48.010;7.832;2022-10-16T13:41:41;0.40;;;0.20;;
7565;SDS011;3824;48.010;7.832;2022-10-16T13:44:14;0.40;;;0.20;;
7565;SDS011;3824;48.010;7.832;2022-10-16T13:46:45;0.33;;;0.20;;
7565;SDS011;3824;48.010;7.832;2022-10-16T13:49:13;0.43;;;0.20;;
7565;SDS011;3824;48.010;7.832;2022-10-16T13:51:41;0.50;;;0.27;;
7565;SDS011;3824;48.010;7.832;2022-10-16T13:54:23;0.60;;;0.20;;
7565;SDS011;3824;48.010;7.832;2022-10-16T13:56:51;0.43;;;0.20;;
7565;SDS011;3824;48.010;7.832;2022-10-16T13:59:25;0.50;;;0.30;;
7565;SDS011;3824;48.010;7.832;2022-10-16T14:01:53;0.40;;;0.20;;
7565;SDS011;3824;48.010;7.832;2022-10-16T14:04:23;0.70;;;0.30;;
7565;SDS011;3824;48.010;7.832;2022-10-16T14:06:51;0.40;;;0.30;;
7565;SDS011;3824;48.010;7.832;2022-10-16T14:09:21;0.40;;;0.20;;
7565;SDS011;3824;48.010;7.832;2022-10-16T14:11:52;0.30;;;0.20;;
7565;SDS011;3824;48.010;7.832;2022-10-16T14:14:21;0.50;;;0.20;;
7565;SDS011;3824;48.010;7.832;2022-10-16T14:16:49;1.23;;;1.17;;
7565;SDS011;3824;48.010;7.832;2022-10-16T14:19:18;0.40;;;0.30;;
7565;SDS011;3824;48.010;7.832;2022-10-16T14:21:48;0.30;;;0.20;;
7565;SDS011;3824;48.010;7.832;2022-10-16T14:24:22;0.40;;;0.20;;
7565;SDS011;3824;48.010;7.832;2022-10-16T14:26:53;0.40;;;0.20;;
7565;SDS011;3824;48.010;7.832;2022-10-16T14:29:22;0.37;;;0.20;;
7565;SDS011;3824;48.010;7.832;2022-10-16T14:31:56;0.50;;;0.30;;
7565;SDS011;3824;48.010;7.832;2022-10-16T14:34:24;0.40;;;0.20;;
7565;SDS011;3824;48.010;7.832;2022-10-16T14:36:58;0.50;;;0.27;;
7565;SDS011;3824;48.010;7.832;2022-10-16T14:39:32;0.50;;;0.30;;
7565;SDS011;3824;48.010;7.832;2022-10-16T14:42:00;0.50;;;0.30;;
7565;SDS011;3824;48.010;7.832;2022-10-16T14:44:28;0.40;;;0.20;;
7565;SDS011;3824;48.010;7.832;2022-10-16T14:46:58;0.40;;;0.30;;
7565;SDS011;3824;48.010;7.832;2022-10-16T14:49:34;0.50;;;0.30;;
7565;SDS011;3824;48.010;7.832;2022-10-16T14:52:01;0.87;;;0.20;;
7565;SDS011;3824;48.010;7.832;2022-10-16T14:54:31;0.40;;;0.20;;
7565;SDS011;3824;48.010;7.832;2022-10-16T14:56:59;0.57;;;0.20;;
7565;SDS011;3824;48.010;7.832;2022-10-16T14:59:27;0.40;;;0.20;;
7565;SDS011;3824;48.010;7.832;2022-10-16T15:01:56;0.50;;;0.20;;
7565;SDS011;3824;48.010;7.832;2022-10-16T15:04:23;0.40;;;0.23;;
7565;SDS011;3824;48.010;7.832;2022-10-16T15:06:50;0.60;;;0.27;;
7565;SDS011;3824;48.010;7.832;2022-10-16T15:09:17;2.20;;;0.23;;
7565;SDS011;3824;48.010;7.832;2022-10-16T15:11:44;2.33;;;0.77;;
7565;SDS011;3824;48.010;7.832;2022-10-16T15:14:12;2.57;;;0.30;;
7565;SDS011;3824;48.010;7.832;2022-10-16T15:16:39;0.50;;;0.20;;
7565;SDS011;3824;48.010;7.832;2022-10-16T15:19:06;0.40;;;0.30;;
7565;SDS011;3824;48.010;7.832;2022-10-16T15:21:33;0.33;;;0.20;;
7565;SDS011;3824;48.010;7.832;2022-10-16T15:24:00;0.40;;;0.20;;
7565;SDS011;3824;48.010;7.832;2022-10-16T15:26:27;0.60;;;0.27;;
7565;SDS011;3824;48.010;7.832;2022-10-16T15:28:55;0.50;;;0.27;;
7565;SDS011;3824;48.010;7.832;2022-10-16T15:31:24;0.70;;;0.30;;
7565;SDS011;3824;48.010;7.832;2022-10-16T15:33:51;0.30;;;0.20;;
7565;SDS011;3824;48.010;7.832;2022-10-16T15:36:26;0.53;;;0.30;;
7565;SDS011;3824;48.010;7.832;2022-10-16T15:38:54;1.17;;;0.20;;
7565;SDS011;3824;48.010;7.832;2022-10-16T15:41:21;0.50;;;0.30;;